sensor_id;sensor_type;location;lat;lon;timestamp;pressure;altitude;pressure_sealevel;temperature;humidity
3294;BME280;1659;51.470;6.770;2023-04-01T00:01:43;99144.47;;;9.35;100.00
3294;BME280;1659;51.470;6.770;2023-04-01T00:04:10;99143.53;;;9.36;100.00
3294;BME280;1659;51.470;6.770;2023-04-01T00:06:36;99145.31;;;9.36;100.00
3294;BME280;1659;51.470;6.770;2023-04-01T00:09:03;99132.97;;;9.36;100.00
3294;BME280;1659;51.470;6.770;2023-04-01T00:11:30;99141.78;;;9.37;100.00
3294;BME280;1659;51.470;6.770;2023-04-01T00:13:58;99141.78;;;9.37;100.00
3294;BME280;1659;51.470;6.770;2023-04-01T00:16:24;99133.81;;;9.38;100.00
3294;BME280;1659;51.470;6.770;2023-04-01T00:18:51;99146.84;;;9.41;100.00
3294;BME280;1659;51.470;6.770;2023-04-01T00:21:19;99131.81;;;9.43;100.00
3294;BME280;1659;51.470;6.770;2023-04-01T00:23:47;99149.31;;;9.46;100.00
3294;BME280;1659;51.470;6.770;2023-04-01T00:26:13;99136.06;;;9.48;100.00
3294;BME280;1659;51.470;6.770;2023-04-01T00:28:44;99142.19;;;9.48;100.00
3294;BME280;1659;51.470;6.770;2023-04-01T00:31:13;99134.28;;;9.48;100.00
3294;BME280;1659;51.470;6.770;2023-04-01T00:33:40;99128.16;;;9.48;100.00
3294;BME280;1659;51.470;6.770;2023-04-01T00:36:08;99142.19;;;9.48;100.00
3294;BME280;1659;51.470;6.770;2023-04-01T00:38:35;99133.44;;;9.48;100.00
3294;BME280;1659;51.470;6.770;2023-04-01T00:41:02;99140.41;;;9.49;100.00
3294;BME280;1659;51.470;6.770;2023-04-01T00:43:29;99138.69;;;9.48;100.00
3294;BME280;1659;51.470;6.770;2023-04-01T00:45:56;99144.03;;;9.46;100.00
3294;BME280;1659;51.470;6.770;2023-04-01T00:48:26;99134.53;;;9.42;100.00
3294;BME280;1659;51.470;6.770;2023-04-01T00:50:58;99146.03;;;9.39;100.00
3294;BME280;1659;51.470;6.770;2023-04-01T00:53:28;99140.84;;;9.38;100.00
3294;BME280;1659;51.470;6.770;2023-04-01T00:55:59;99133.88;;;9.37;100.00
3294;BME280;1659;51.470;6.770;2023-04-01T00:58:29;99135.69;;;9.35;100.00
3294;BME280;1659;51.470;6.770;2023-04-01T01:00:59;99141.03;;;9.33;100.00
3294;BME280;1659;51.470;6.770;2023-04-01T01:03:27;99138.47;;;9.32;100.00
3294;BME280;1659;51.470;6.770;2023-04-01T01:06:08;99132.31;;;9.31;100.00
3294;BME280;1659;51.470;6.770;2023-04-01T01:08:46;99133.31;;;9.29;100.00
3294;BME280;1659;51.470;6.770;2023-04-01T01:11:22;99130.66;;;9.29;100.00
3294;BME280;1659;51.470;6.770;2023-04-01T01:13:57;99116.63;;;9.28;100.00
3294;BME280;1659;51.470;6.770;2023-04-01T01:16:27;99116.59;;;9.30;100.00
3294;BME280;1659;51.470;6.770;2023-04-01T01:19:04;99117.50;;;9.29;100.00
3294;BME280;1659;51.470;6.770;2023-04-01T01:22:03;99123.56;;;9.31;100.00
3294;BME280;1659;51.470;6.770;2023-04-01T01:24:44;99122.66;;;9.32;100.00
3294;BME280;1659;51.470;6.770;2023-04-01T01:27:17;99121.72;;;9.33;100.00
3294;BME280;1659;51.470;6.770;2023-04-01T01:30:13;99117.31;;;9.33;100.00
3294;BME280;1659;51.470;6.770;2023-04-01T01:32:59;99104.97;;;9.34;100.00
3294;BME280;1659;51.470;6.770;2023-04-01T01:35:31;99123.44;;;9.34;100.00
3294;BME280;1659;51.470;6.770;2023-04-01T01:38:01;99111.16;;;9.33;100.00
3294;BME280;1659;51.470;6.770;2023-04-01T01:40:31;99113.81;;;9.33;100.00
3294;BME280;1659;51.470;6.770;2023-04-01T01:43:00;99112.03;;;9.33;100.00
3294;BME280;1659;51.470;6.770;2023-04-01T01:45:30;99113.75;;;9.34;100.00
3294;BME280;1659;51.470;6.770;2023-04-01T01:47:58;99108.47;;;9.34;100.00
3294;BME280;1659;51.470;6.770;2023-04-01T01:50:26;99115.47;;;9.35;100.00
3294;BME280;1659;51.470;6.770;2023-04-01T01:53:02;99101.34;;;9.36;100.00
3294;BME280;1659;51.470;6.770;2023-04-01T01:55:32;99105.72;;;9.37;100.00
3294;BME280;1659;51.470;6.770;2023-04-01T01:58:01;99119.75;;;9.38;100.00
3294;BME280;1659;51.470;6.770;2023-04-01T02:00:30;99107.34;;;9.40;100.00
3294;BME280;1659;51.470;6.770;2023-04-01T02:02:58;99102.16;;;9.38;100.00
3294;BME280;1659;51.470;6.770;2023-04-01T02:05:27;99109.09;;;9.41;100.00
3294;BME280;1659;51.470;6.770;2023-04-01T02:08:02;99112.56;;;9.41;100.00
3294;BME280;1659;51.470;6.770;2023-04-01T02:10:35;99127.47;;;9.42;100.00
3294;BME280;1659;51.470;6.770;2023-04-01T02:13:07;99129.19;;;9.43;100.00
3294;BME280;1659;51.470;6.770;2023-04-01T02:15:39;99124.00;;;9.42;100.00
3294;BME280;1659;51.470;6.770;2023-04-01T02:18:08;99121.25;;;9.43;100.00
3294;BME280;1659;51.470;6.770;2023-04-01T02:20:36;99126.47;;;9.45;100.00
3294;BME280;1659;51.470;6.770;2023-04-01T02:23:06;99129.13;;;9.45;100.00
3294;BME280;1659;51.470;6.770;2023-04-01T02:25:35;99135.38;;;9.42;100.00
3294;BME280;1659;51.470;6.770;2023-04-01T02:28:05;99131.03;;;9.41;100.00
3294;BME280;1659;51.470;6.770;2023-04-01T02:30:35;99131.06;;;9.40;100.00
3294;BME280;1659;51.470;6.770;2023-04-01T02:33:03;99131.28;;;9.35;100.00
3294;BME280;1659;51.470;6.770;2023-04-01T02:35:30;99138.41;;;9.33;100.00
3294;BME280;1659;51.470;6.770;2023-04-01T02:37:58;99142.00;;;9.31;100.00
3294;BME280;1659;51.470;6.770;2023-04-01T02:40:26;99144.91;;;9.24;100.00
3294;BME280;1659;51.470;6.770;2023-04-01T02:42:53;99141.69;;;9.16;100.00
3294;BME280;1659;51.470;6.770;2023-04-01T02:45:20;99144.50;;;9.12;100.00
3294;BME280;1659;51.470;6.770;2023-04-01T02:47:46;99145.53;;;9.07;100.00
3294;BME280;1659;51.470;6.770;2023-04-01T02:50:13;99147.44;;;9.04;100.00
3294;BME280;1659;51.470;6.770;2023-04-01T02:52:40;99151.88;;;9.03;100.00
3294;BME280;1659;51.470;6.770;2023-04-01T02:55:07;99156.31;;;9.01;100.00
3294;BME280;1659;51.470;6.770;2023-04-01T02:57:35;99151.09;;;9.00;100.00
3294;BME280;1659;51.470;6.770;2023-04-01T03:00:01;99152.81;;;9.01;100.00
3294;BME280;1659;51.470;6.770;2023-04-01T03:02:28;99150.25;;;8.99;100.00
3294;BME280;1659;51.470;6.770;2023-04-01T03:04:54;99149.38;;;8.99;100.00
3294;BME280;1659;51.470;6.770;2023-04-01T03:07:21;99151.97;;;9.00;100.00
3294;BME280;1659;51.470;6.770;2023-04-01T03:09:48;99163.34;;;9.01;100.00
3294;BME280;1659;51.470;6.770;2023-04-01T03:12:14;99152.75;;;9.02;100.00
3294;BME280;1659;51.470;6.770;2023-04-01T03:14:42;99159.75;;;9.03;100.00
3294;BME280;1659;51.470;6.770;2023-04-01T03:17:09;99163.25;;;9.04;100.00
3294;BME280;1659;51.470;6.770;2023-04-01T03:19:35;99153.56;;;9.04;100.00
3294;BME280;1659;51.470;6.770;2023-04-01T03:22:02;99161.47;;;9.04;100.00
3294;BME280;1659;51.470;6.770;2023-04-01T03:24:28;99157.94;;;9.05;100.00
3294;BME280;1659;51.470;6.770;2023-04-01T03:26:55;99163.13;;;9.07;100.00
3294;BME280;1659;51.470;6.770;2023-04-01T03:29:21;99164.84;;;9.08;100.00
3294;BME280;1659;51.470;6.770;2023-04-01T03:31:49;99165.69;;;9.08;100.00
3294;BME280;1659;51.470;6.770;2023-04-01T03:34:15;99170.91;;;9.10;100.00
3294;BME280;1659;51.470;6.770;2023-04-01T03:36:42;99165.63;;;9.10;100.00
3294;BME280;1659;51.470;6.770;2023-04-01T03:39:08;99168.25;;;9.10;100.00
3294;BME280;1659;51.470;6.770;2023-04-01T03:41:36;99174.38;;;9.12;100.00
3294;BME280;1659;51.470;6.770;2023-04-01T03:44:02;99177.00;;;9.12;100.00
3294;BME280;1659;51.470;6.770;2023-04-01T03:46:29;99172.56;;;9.13;100.00
3294;BME280;1659;51.470;6.770;2023-04-01T03:48:57;99169.00;;;9.14;100.00
3294;BME280;1659;51.470;6.770;2023-04-01T03:51:23;99176.00;;;9.15;100.00
3294;BME280;1659;51.470;6.770;2023-04-01T03:53:50;99163.69;;;9.15;100.00
3294;BME280;1659;51.470;6.770;2023-04-01T03:56:16;99167.19;;;9.16;100.00
3294;BME280;1659;51.470;6.770;2023-04-01T03:58:43;99178.59;;;9.16;100.00
3294;BME280;1659;51.470;6.770;2023-04-01T04:01:17;99178.53;;;9.18;100.00
3294;BME280;1659;51.470;6.770;2023-04-01T04:03:45;99172.38;;;9.17;100.00
3294;BME280;1659;51.470;6.770;2023-04-01T04:06:17;99170.63;;;9.18;100.00
3294;BME280;1659;51.470;6.770;2023-04-01T04:08:44;99173.31;;;9.16;100.00
3294;BME280;1659;51.470;6.770;2023-04-01T04:11:10;99177.72;;;9.16;100.00
3294;BME280;1659;51.470;6.770;2023-04-01T04:13:37;99178.59;;;9.16;100.00
3294;BME280;1659;51.470;6.770;2023-04-01T04:16:04;99183.00;;;9.16;100.00
3294;BME280;1659;51.470;6.770;2023-04-01T04:18:31;99182.13;;;9.15;100.00
3294;BME280;1659;51.470;6.770;2023-04-01T04:20:57;99177.66;;;9.17;100.00
3294;BME280;1659;51.470;6.770;2023-04-01T04:23:25;99183.00;;;9.16;100.00
3294;BME280;1659;51.470;6.770;2023-04-01T04:25:57;99183.00;;;9.16;100.00
3294;BME280;1659;51.470;6.770;2023-04-01T04:28:24;99189.13;;;9.16;100.00
3294;BME280;1659;51.470;6.770;2023-04-01T04:30:51;99190.81;;;9.17;100.00
3294;BME280;1659;51.470;6.770;2023-04-01T04:33:18;99192.63;;;9.17;100.00
3294;BME280;1659;51.470;6.770;2023-04-01T04:35:44;99197.88;;;9.17;100.00
3294;BME280;1659;51.470;6.770;2023-04-01T04:38:11;99202.25;;;9.18;100.00
3294;BME280;1659;51.470;6.770;2023-04-01T04:40:40;99199.66;;;9.16;100.00
3294;BME280;1659;51.470;6.770;2023-04-01T04:43:10;99189.97;;;9.17;100.00
3294;BME280;1659;51.470;6.770;2023-04-01T04:45:37;99197.81;;;9.18;100.00
3294;BME280;1659;51.470;6.770;2023-04-01T04:48:03;99198.72;;;9.17;100.00
3294;BME280;1659;51.470;6.770;2023-04-01T04:50:30;99198.72;;;9.17;100.00
3294;BME280;1659;51.470;6.770;2023-04-01T04:52:56;99198.72;;;9.17;100.00
3294;BME280;1659;51.470;6.770;2023-04-01T04:55:23;99206.72;;;9.16;100.00
3294;BME280;1659;51.470;6.770;2023-04-01T04:57:51;99200.50;;;9.17;100.00
3294;BME280;1659;51.470;6.770;2023-04-01T05:00:18;99212.84;;;9.16;100.00
3294;BME280;1659;51.470;6.770;2023-04-01T05:02:44;99207.56;;;9.16;100.00
3294;BME280;1659;51.470;6.770;2023-04-01T05:05:11;99205.78;;;9.17;100.00
3294;BME280;1659;51.470;6.770;2023-04-01T05:07:37;99200.56;;;9.15;100.00
3294;BME280;1659;51.470;6.770;2023-04-01T05:10:04;99202.34;;;9.15;100.00
3294;BME280;1659;51.470;6.770;2023-04-01T05:12:31;99206.78;;;9.14;100.00
3294;BME280;1659;51.470;6.770;2023-04-01T05:15:03;99207.63;;;9.15;100.00
3294;BME280;1659;51.470;6.770;2023-04-01T05:17:29;99213.81;;;9.14;100.00
3294;BME280;1659;51.470;6.770;2023-04-01T05:19:56;99210.31;;;9.13;100.00
3294;BME280;1659;51.470;6.770;2023-04-01T05:22:22;99217.38;;;9.13;100.00
3294;BME280;1659;51.470;6.770;2023-04-01T05:24:49;99226.13;;;9.13;100.00
3294;BME280;1659;51.470;6.770;2023-04-01T05:27:16;99227.84;;;9.14;100.00
3294;BME280;1659;51.470;6.770;2023-04-01T05:29:42;99232.25;;;9.14;100.00
3294;BME280;1659;51.470;6.770;2023-04-01T05:32:10;99222.63;;;9.13;100.00
3294;BME280;1659;51.470;6.770;2023-04-01T05:34:37;99221.78;;;9.12;100.00
3294;BME280;1659;51.470;6.770;2023-04-01T05:37:03;99229.69;;;9.12;100.00
3294;BME280;1659;51.470;6.770;2023-04-01T05:39:30;99232.34;;;9.12;100.00
3294;BME280;1659;51.470;6.770;2023-04-01T05:41:56;99234.03;;;9.13;100.00
3294;BME280;1659;51.470;6.770;2023-04-01T05:44:23;99232.25;;;9.14;100.00
3294;BME280;1659;51.470;6.770;2023-04-01T05:46:49;99227.91;;;9.13;100.00
3294;BME280;1659;51.470;6.770;2023-04-01T05:49:17;99235.81;;;9.13;100.00
3294;BME280;1659;51.470;6.770;2023-04-01T05:51:44;99235.81;;;9.13;100.00
3294;BME280;1659;51.470;6.770;2023-04-01T05:54:10;99237.59;;;9.12;100.00
3294;BME280;1659;51.470;6.770;2023-04-01T05:56:37;99241.16;;;9.11;100.00
3294;BME280;1659;51.470;6.770;2023-04-01T05:59:03;99237.66;;;9.11;100.00
3294;BME280;1659;51.470;6.770;2023-04-01T06:01:30;99242.94;;;9.11;100.00
3294;BME280;1659;51.470;6.770;2023-04-01T06:03:57;99239.34;;;9.12;100.00
3294;BME280;1659;51.470;6.770;2023-04-01T06:06:26;99236.72;;;9.12;100.00
3294;BME280;1659;51.470;6.770;2023-04-01T06:08:56;99241.09;;;9.13;100.00
3294;BME280;1659;51.470;6.770;2023-04-01T06:11:28;99248.06;;;9.14;100.00
3294;BME280;1659;51.470;6.770;2023-04-01T06:14:12;99248.06;;;9.14;100.00
3294;BME280;1659;51.470;6.770;2023-04-01T06:16:54;99246.25;;;9.16;100.00
3294;BME280;1659;51.470;6.770;2023-04-01T06:19:32;99250.69;;;9.14;100.00
3294;BME280;1659;51.470;6.770;2023-04-01T06:25:02;99257.69;;;9.15;100.00
3294;BME280;1659;51.470;6.770;2023-04-01T06:27:43;99253.31;;;9.14;100.00
3294;BME280;1659;51.470;6.770;2023-04-01T06:33:33;99260.38;;;9.13;100.00
3294;BME280;1659;51.470;6.770;2023-04-01T06:36:25;99268.28;;;9.13;100.00
3294;BME280;1659;51.470;6.770;2023-04-01T06:39:09;99262.06;;;9.16;100.00
3294;BME280;1659;51.470;6.770;2023-04-01T06:42:06;99269.03;;;9.17;100.00
3294;BME280;1659;51.470;6.770;2023-04-01T06:44:43;99268.19;;;9.16;100.00
3294;BME280;1659;51.470;6.770;2023-04-01T06:47:23;99271.72;;;9.15;100.00
3294;BME280;1659;51.470;6.770;2023-04-01T06:50:00;99281.34;;;9.16;100.00
3294;BME280;1659;51.470;6.770;2023-04-01T06:52:37;99279.53;;;9.18;100.00
3294;BME280;1659;51.470;6.770;2023-04-01T06:55:21;99279.47;;;9.20;100.00
3294;BME280;1659;51.470;6.770;2023-04-01T06:57:52;99279.53;;;9.18;100.00
3294;BME280;1659;51.470;6.770;2023-04-01T07:00:27;99275.16;;;9.17;100.00
3294;BME280;1659;51.470;6.770;2023-04-01T07:03:03;99279.53;;;9.18;100.00
3294;BME280;1659;51.470;6.770;2023-04-01T07:05:32;99288.22;;;9.20;100.00
3294;BME280;1659;51.470;6.770;2023-04-01T07:08:02;99283.88;;;9.19;100.00
3294;BME280;1659;51.470;6.770;2023-04-01T07:10:35;99275.03;;;9.20;100.00
3294;BME280;1659;51.470;6.770;2023-04-01T07:13:09;99290.81;;;9.22;100.00
3294;BME280;1659;51.470;6.770;2023-04-01T07:15:41;99296.03;;;9.23;100.00
3294;BME280;1659;51.470;6.770;2023-04-01T07:18:14;99288.91;;;9.25;100.00
3294;BME280;1659;51.470;6.770;2023-04-01T07:20:42;99299.47;;;9.25;100.00
3294;BME280;1659;51.470;6.770;2023-04-01T07:23:16;99296.94;;;9.22;100.00
3294;BME280;1659;51.470;6.770;2023-04-01T07:25:51;99303.09;;;9.23;100.00
3294;BME280;1659;51.470;6.770;2023-04-01T07:28:18;99306.56;;;9.23;100.00
3294;BME280;1659;51.470;6.770;2023-04-01T07:30:53;99313.63;;;9.23;100.00
3294;BME280;1659;51.470;6.770;2023-04-01T07:33:27;99301.31;;;9.23;100.00
3294;BME280;1659;51.470;6.770;2023-04-01T07:36:03;99317.13;;;9.23;100.00
3294;BME280;1659;51.470;6.770;2023-04-01T07:38:39;99317.97;;;9.24;100.00
3294;BME280;1659;51.470;6.770;2023-04-01T07:41:13;99308.31;;;9.24;100.00
3294;BME280;1659;51.470;6.770;2023-04-01T07:43:53;99323.19;;;9.25;100.00
3294;BME280;1659;51.470;6.770;2023-04-01T07:46:30;99327.44;;;9.30;100.00
3294;BME280;1659;51.470;6.770;2023-04-01T07:49:04;99322.09;;;9.31;100.00
3294;BME280;1659;51.470;6.770;2023-04-01T07:51:38;99332.53;;;9.34;100.00
3294;BME280;1659;51.470;6.770;2023-04-01T07:54:11;99335.13;;;9.36;100.00
3294;BME280;1659;51.470;6.770;2023-04-01T07:56:47;99339.47;;;9.37;100.00
3294;BME280;1659;51.470;6.770;2023-04-01T07:59:21;99338.59;;;9.36;100.00
3294;BME280;1659;51.470;6.770;2023-04-01T08:01:55;99344.84;;;9.34;100.00
3294;BME280;1659;51.470;6.770;2023-04-01T08:04:38;99352.72;;;9.35;100.00
3294;BME280;1659;51.470;6.770;2023-04-01T08:07:11;99353.56;;;9.36;100.00
3294;BME280;1659;51.470;6.770;2023-04-01T08:09:47;99359.59;;;9.39;100.00
3294;BME280;1659;51.470;6.770;2023-04-01T08:12:26;99357.78;;;9.40;100.00
3294;BME280;1659;51.470;6.770;2023-04-01T08:15:01;99360.44;;;9.40;100.00
3294;BME280;1659;51.470;6.770;2023-04-01T08:17:36;99358.63;;;9.42;100.00
3294;BME280;1659;51.470;6.770;2023-04-01T08:20:27;99365.59;;;9.43;100.00
3294;BME280;1659;51.470;6.770;2023-04-01T08:22:59;99362.06;;;9.44;100.00
3294;BME280;1659;51.470;6.770;2023-04-01T08:25:28;99378.63;;;9.48;100.00
3294;BME280;1659;51.470;6.770;2023-04-01T08:28:03;99380.41;;;9.47;100.00
3294;BME280;1659;51.470;6.770;2023-04-01T08:30:37;99387.38;;;9.48;100.00
3294;BME280;1659;51.470;6.770;2023-04-01T08:33:10;99390.81;;;9.50;100.00
3294;BME280;1659;51.470;6.770;2023-04-01T08:35:42;99382.91;;;9.50;100.00
3294;BME280;1659;51.470;6.770;2023-04-01T08:38:13;99396.91;;;9.52;100.00
3294;BME280;1659;51.470;6.770;2023-04-01T08:40:58;99400.31;;;9.56;100.00
3294;BME280;1659;51.470;6.770;2023-04-01T08:46:56;99404.50;;;9.61;100.00
3294;BME280;1659;51.470;6.770;2023-04-01T08:49:40;99412.41;;;9.61;100.00
3294;BME280;1659;51.470;6.770;2023-04-01T08:52:34;99403.56;;;9.62;100.00
3294;BME280;1659;51.470;6.770;2023-04-01T08:55:27;99410.63;;;9.62;100.00
3294;BME280;1659;51.470;6.770;2023-04-01T08:58:13;99413.25;;;9.62;100.00
3294;BME280;1659;51.470;6.770;2023-04-01T09:00:46;99412.31;;;9.64;100.00
3294;BME280;1659;51.470;6.770;2023-04-01T09:03:34;99415.59;;;9.70;100.00
3294;BME280;1659;51.470;6.770;2023-04-01T09:06:20;99413.91;;;9.69;100.00
3294;BME280;1659;51.470;6.770;2023-04-01T09:09:02;99422.50;;;9.74;100.00
3294;BME280;1659;51.470;6.770;2023-04-01T09:11:42;99432.00;;;9.78;100.00
3294;BME280;1659;51.470;6.770;2023-04-01T09:14:48;99426.56;;;9.82;100.00
3294;BME280;1659;51.470;6.770;2023-04-01T09:17:38;99430.88;;;9.85;100.00
3294;BME280;1659;51.470;6.770;2023-04-01T09:20:39;99427.16;;;9.91;100.00
3294;BME280;1659;51.470;6.770;2023-04-01T09:23:29;99421.69;;;9.95;100.00
3294;BME280;1659;51.470;6.770;2023-04-01T09:26:08;99423.97;;;10.05;100.00
3294;BME280;1659;51.470;6.770;2023-04-01T09:28:44;99434.25;;;10.12;100.00
3294;BME280;1659;51.470;6.770;2023-04-01T09:31:26;99440.28;;;10.16;100.00
3294;BME280;1659;51.470;6.770;2023-04-01T09:34:15;99442.66;;;10.22;100.00
3294;BME280;1659;51.470;6.770;2023-04-01T09:37:00;99445.94;;;10.29;100.00
3294;BME280;1659;51.470;6.770;2023-04-01T09:39:37;99446.81;;;10.29;100.00
3294;BME280;1659;51.470;6.770;2023-04-01T09:42:15;99454.72;;;10.29;100.00
3294;BME280;1659;51.470;6.770;2023-04-01T09:44:58;99462.66;;;10.29;100.00
3294;BME280;1659;51.470;6.770;2023-04-01T09:47:43;99465.50;;;10.23;100.00
3294;BME280;1659;51.470;6.770;2023-04-01T09:50:31;99463.03;;;10.18;100.00
3294;BME280;1659;51.470;6.770;2023-04-01T09:53:09;99468.47;;;10.15;100.00
3294;BME280;1659;51.470;6.770;2023-04-01T09:56:08;99466.84;;;10.11;100.00
3294;BME280;1659;51.470;6.770;2023-04-01T09:58:54;99474.75;;;10.11;100.00
3294;BME280;1659;51.470;6.770;2023-04-01T10:01:43;99472.06;;;10.13;100.00
3294;BME280;1659;51.470;6.770;2023-04-01T10:14:08;99478.50;;;10.29;100.00
3294;BME280;1659;51.470;6.770;2023-04-01T10:19:59;99491.69;;;10.29;100.00
3294;BME280;1659;51.470;6.770;2023-04-01T10:22:53;99489.09;;;10.28;100.00
3294;BME280;1659;51.470;6.770;2023-04-01T10:25:57;99499.63;;;10.29;100.00
3294;BME280;1659;51.470;6.770;2023-04-01T10:29:13;99492.59;;;10.28;100.00
3294;BME280;1659;51.470;6.770;2023-04-01T10:32:06;99504.31;;;10.21;100.00
3294;BME280;1659;51.470;6.770;2023-04-01T10:35:18;99506.47;;;10.10;100.00
3294;BME280;1659;51.470;6.770;2023-04-01T10:38:19;99503.09;;;10.06;100.00
3294;BME280;1659;51.470;6.770;2023-04-01T10:41:06;99506.72;;;10.04;100.00
3294;BME280;1659;51.470;6.770;2023-04-01T10:44:06;99512.81;;;10.06;100.00
3294;BME280;1659;51.470;6.770;2023-04-01T10:52:52;99519.69;;;10.10;100.00
3294;BME280;1659;51.470;6.770;2023-04-01T10:55:36;99521.31;;;10.14;100.00
3294;BME280;1659;51.470;6.770;2023-04-01T10:58:21;99526.59;;;10.14;100.00
3294;BME280;1659;51.470;6.770;2023-04-01T11:01:23;99524.78;;;10.14;100.00
3294;BME280;1659;51.470;6.770;2023-04-01T11:10:53;99537.84;;;10.19;100.00
3294;BME280;1659;51.470;6.770;2023-04-01T11:13:47;99535.06;;;10.22;100.00
3294;BME280;1659;51.470;6.770;2023-04-01T11:22:57;99550.97;;;10.20;100.00
3294;BME280;1659;51.470;6.770;2023-04-01T11:25:57;99553.63;;;10.20;100.00
3294;BME280;1659;51.470;6.770;2023-04-01T11:28:54;99558.03;;;10.20;100.00
3294;BME280;1659;51.470;6.770;2023-04-01T11:31:39;99558.03;;;10.20;100.00
3294;BME280;1659;51.470;6.770;2023-04-01T11:34:17;99549.25;;;10.19;100.00
3294;BME280;1659;51.470;6.770;2023-04-01T11:36:55;99563.34;;;10.18;100.00
3294;BME280;1659;51.470;6.770;2023-04-01T11:39:32;99560.66;;;10.20;100.00
3294;BME280;1659;51.470;6.770;2023-04-01T11:42:11;99567.63;;;10.23;100.00
3294;BME280;1659;51.470;6.770;2023-04-01T11:44:48;99576.19;;;10.29;100.00
3294;BME280;1659;51.470;6.770;2023-04-01T11:47:30;99578.56;;;10.37;100.00
3294;BME280;1659;51.470;6.770;2023-04-01T11:50:21;99577.47;;;10.43;100.00
3294;BME280;1659;51.470;6.770;2023-04-01T11:53:06;99584.44;;;10.45;100.00
3294;BME280;1659;51.470;6.770;2023-04-01T11:55:57;99585.13;;;10.50;100.00
3294;BME280;1659;51.470;6.770;2023-04-01T11:58:46;99592.06;;;10.53;100.00
3294;BME280;1659;51.470;6.770;2023-04-01T12:01:24;99592.91;;;10.53;100.00
3294;BME280;1659;51.470;6.770;2023-04-01T12:04:18;99600.72;;;10.56;100.00
3294;BME280;1659;51.470;6.770;2023-04-01T12:06:56;99602.47;;;10.57;100.00
3294;BME280;1659;51.470;6.770;2023-04-01T12:09:35;99604.06;;;10.62;100.00
3294;BME280;1659;51.470;6.770;2023-04-01T12:12:13;99613.66;;;10.64;100.00
3294;BME280;1659;51.470;6.770;2023-04-01T12:14:49;99608.97;;;10.71;100.00
3294;BME280;1659;51.470;6.770;2023-04-01T12:17:29;99610.66;;;10.73;100.00
3294;BME280;1659;51.470;6.770;2023-04-01T12:20:04;99615.25;;;10.68;100.00
3294;BME280;1659;51.470;6.770;2023-04-01T12:22:46;99615.41;;;10.64;100.00
3294;BME280;1659;51.470;6.770;2023-04-01T12:25:26;99621.81;;;10.58;100.00
3294;BME280;1659;51.470;6.770;2023-04-01T12:28:05;99623.84;;;10.50;100.00
3294;BME280;1659;51.470;6.770;2023-04-01T12:30:44;99625.69;;;10.48;100.00
3294;BME280;1659;51.470;6.770;2023-04-01T12:33:29;99632.94;;;10.43;100.00
3294;BME280;1659;51.470;6.770;2023-04-01T12:36:08;99634.75;;;10.41;100.00
3294;BME280;1659;51.470;6.770;2023-04-01T12:38:44;99636.66;;;10.37;100.00
3294;BME280;1659;51.470;6.770;2023-04-01T12:41:21;99636.75;;;10.34;100.00
3294;BME280;1659;51.470;6.770;2023-04-01T12:44:07;99631.53;;;10.32;100.00
3294;BME280;1659;51.470;6.770;2023-04-01T12:46:54;99650.03;;;10.31;100.00
3294;BME280;1659;51.470;6.770;2023-04-01T12:52:16;99654.69;;;10.24;100.00
3294;BME280;1659;51.470;6.770;2023-04-01T12:55:17;99657.44;;;10.21;100.00
3294;BME280;1659;51.470;6.770;2023-04-01T12:58:03;99660.19;;;10.18;100.00
3294;BME280;1659;51.470;6.770;2023-04-01T13:00:55;99661.97;;;10.17;100.00
3294;BME280;1659;51.470;6.770;2023-04-01T13:04:00;99662.88;;;10.16;100.00
3294;BME280;1659;51.470;6.770;2023-04-01T13:06:37;99670.72;;;10.18;100.00
3294;BME280;1659;51.470;6.770;2023-04-01T13:09:20;99676.75;;;10.21;100.00
3294;BME280;1659;51.470;6.770;2023-04-01T13:12:02;99684.59;;;10.25;100.00
3294;BME280;1659;51.470;6.770;2023-04-01T13:14:49;99677.38;;;10.30;100.00
3294;BME280;1659;51.470;6.770;2023-04-01T13:17:21;99686.94;;;10.34;100.00
3294;BME280;1659;51.470;6.770;2023-04-01T13:19:53;99692.22;;;10.34;100.00
3294;BME280;1659;51.470;6.770;2023-04-01T13:22:27;99696.63;;;10.33;100.00
3294;BME280;1659;51.470;6.770;2023-04-01T13:24:59;99694.00;;;10.33;100.00
3294;BME280;1659;51.470;6.770;2023-04-01T13:27:30;99702.84;;;10.31;100.00
3294;BME280;1659;51.470;6.770;2023-04-01T13:30:12;99709.25;;;10.24;100.00
3294;BME280;1659;51.470;6.770;2023-04-01T13:32:46;99704.16;;;10.19;100.00
3294;BME280;1659;51.470;6.770;2023-04-01T13:35:23;99699.78;;;10.18;100.00
3294;BME280;1659;51.470;6.770;2023-04-01T13:38:22;99705.03;;;10.18;100.00
3294;BME280;1659;51.470;6.770;2023-04-01T13:41:00;99696.38;;;10.14;100.00
3294;BME280;1659;51.470;6.770;2023-04-01T13:43:34;99709.63;;;10.13;100.00
3294;BME280;1659;51.470;6.770;2023-04-01T13:46:14;99710.56;;;10.12;100.00
3294;BME280;1659;51.470;6.770;2023-04-01T13:49:11;99715.00;;;10.10;100.00
3294;BME280;1659;51.470;6.770;2023-04-01T13:51:55;99714.25;;;10.06;100.00
3294;BME280;1659;51.470;6.770;2023-04-01T13:54:44;99713.38;;;10.06;100.00
3294;BME280;1659;51.470;6.770;2023-04-01T13:57:28;99722.16;;;10.06;100.00
3294;BME280;1659;51.470;6.770;2023-04-01T14:00:22;99719.50;;;10.06;100.00
3294;BME280;1659;51.470;6.770;2023-04-01T14:06:20;99734.53;;;10.04;100.00
3294;BME280;1659;51.470;6.770;2023-04-01T14:11:52;99741.53;;;10.07;100.00
3294;BME280;1659;51.470;6.770;2023-04-01T14:14:28;99739.69;;;10.09;100.00
3294;BME280;1659;51.470;6.770;2023-04-01T14:17:13;99735.22;;;10.11;100.00
3294;BME280;1659;51.470;6.770;2023-04-01T14:19:57;99742.16;;;10.13;100.00
3294;BME280;1659;51.470;6.770;2023-04-01T14:22:33;99744.69;;;10.16;100.00
3294;BME280;1659;51.470;6.770;2023-04-01T14:25:29;99752.63;;;10.16;100.00
3294;BME280;1659;51.470;6.770;2023-04-01T14:28:08;99756.94;;;10.19;100.00
3294;BME280;1659;51.470;6.770;2023-04-01T14:30:58;99754.31;;;10.19;100.00
3294;BME280;1659;51.470;6.770;2023-04-01T14:33:37;99761.28;;;10.20;100.00
3294;BME280;1659;51.470;6.770;2023-04-01T14:36:27;99762.97;;;10.23;100.00
3294;BME280;1659;51.470;6.770;2023-04-01T14:39:07;99762.00;;;10.25;100.00
3294;BME280;1659;51.470;6.770;2023-04-01T14:41:47;99765.53;;;10.26;100.00
3294;BME280;1659;51.470;6.770;2023-04-01T14:44:23;99769.94;;;10.25;100.00
3294;BME280;1659;51.470;6.770;2023-04-01T14:47:22;99774.31;;;10.26;100.00
3294;BME280;1659;51.470;6.770;2023-04-01T14:49:53;99771.63;;;10.28;100.00
3294;BME280;1659;51.470;6.770;2023-04-01T14:52:26;99778.59;;;10.29;100.00
3294;BME280;1659;51.470;6.770;2023-04-01T14:54:55;99779.50;;;10.29;100.00